地図

経路データ

SID SEASON NUMBER BASIN SUBBASIN NAME ISO_TIME NATURE LAT LON WMO_WIND WMO_PRES WMO_AGENCY TRACK_TYPE DIST2LAND LANDFALL IFLAG USA_AGENCY USA_ATCF_ID USA_LAT USA_LON USA_RECORD USA_STATUS USA_WIND USA_PRES USA_SSHS USA_R34_NE USA_R34_SE USA_R34_SW USA_R34_NW USA_R50_NE USA_R50_SE USA_R50_SW USA_R50_NW USA_R64_NE USA_R64_SE USA_R64_SW USA_R64_NW USA_POCI USA_ROCI USA_RMW USA_EYE TOKYO_LAT TOKYO_LON TOKYO_GRADE TOKYO_WIND TOKYO_PRES TOKYO_R50_DIR TOKYO_R50_LONG TOKYO_R50_SHORT TOKYO_R30_DIR TOKYO_R30_LONG TOKYO_R30_SHORT TOKYO_LAND CMA_LAT CMA_LON CMA_CAT CMA_WIND CMA_PRES HKO_LAT HKO_LON HKO_CAT HKO_WIND HKO_PRES NEWDELHI_LAT NEWDELHI_LON NEWDELHI_GRADE NEWDELHI_WIND NEWDELHI_PRES NEWDELHI_CI NEWDELHI_DP NEWDELHI_POCI REUNION_LAT REUNION_LON REUNION_TYPE REUNION_WIND REUNION_PRES REUNION_TNUM REUNION_CI REUNION_RMW REUNION_R34_NE REUNION_R34_SE REUNION_R34_SW REUNION_R34_NW REUNION_R50_NE REUNION_R50_SE REUNION_R50_SW REUNION_R50_NW REUNION_R64_NE REUNION_R64_SE REUNION_R64_SW REUNION_R64_NW BOM_LAT BOM_LON BOM_TYPE BOM_WIND BOM_PRES BOM_TNUM BOM_CI BOM_RMW BOM_R34_NE BOM_R34_SE BOM_R34_SW BOM_R34_NW BOM_R50_NE BOM_R50_SE BOM_R50_SW BOM_R50_NW BOM_R64_NE BOM_R64_SE BOM_R64_SW BOM_R64_NW BOM_ROCI BOM_POCI BOM_EYE BOM_POS_METHOD BOM_PRES_METHOD NADI_LAT NADI_LON NADI_CAT NADI_WIND NADI_PRES WELLINGTON_LAT WELLINGTON_LON WELLINGTON_WIND WELLINGTON_PRES DS824_LAT DS824_LON DS824_STAGE DS824_WIND DS824_PRES TD9636_LAT TD9636_LON TD9636_STAGE TD9636_WIND TD9636_PRES TD9635_LAT TD9635_LON TD9635_WIND TD9635_PRES TD9635_ROCI NEUMANN_LAT NEUMANN_LON NEUMANN_CLASS NEUMANN_WIND NEUMANN_PRES MLC_LAT MLC_LON MLC_CLASS MLC_WIND MLC_PRES USA_GUST BOM_GUST BOM_GUST_PER REUNION_GUST REUNION_GUST_PER USA_SEAHGT USA_SEARAD_NE USA_SEARAD_SE USA_SEARAD_SW USA_SEARAD_NW STORM_SPEED STORM_DIR
1899076S18119 1899 11 SI WA NOT_NAMED 1899-03-16 12:00:00 NR -18.3000 119.300 main 197 186 __________O___ -1 -18.3000 119.300 7 3 220
1899076S18119 1899 11 SI WA NOT_NAMED 1899-03-16 15:00:00 NR -18.4329 119.181 main 189 167 __________P___ -1 -18.4329 119.181 7 3 220
1899076S18119 1899 11 SI WA NOT_NAMED 1899-03-16 18:00:00 NR -18.5626 119.070 main 167 156 __________P___ -1 -18.5626 119.070 7 3 218
1899076S18119 1899 11 SI WA NOT_NAMED 1899-03-16 21:00:00 NR -18.6860 118.974 main 156 146 __________P___ -1 -18.6860 118.974 7 3 214
1899076S18119 1899 11 SI WA NOT_NAMED 1899-03-17 00:00:00 NR -18.8000 118.900 main 146 135 __________O___ -1 -18.8000 118.900 7 2 207
1899076S18119 1899 11 SI WA NOT_NAMED 1899-03-17 03:00:00 NR -18.9031 118.853 main 135 126 __________P___ -1 -18.9031 118.853 7 2 200
1899076S18119 1899 11 SI WA NOT_NAMED 1899-03-17 06:00:00 NR -19.0000 118.827 main 126 116 __________P___ -1 -19.0000 118.827 7 2 192
1899076S18119 1899 11 SI WA NOT_NAMED 1899-03-17 09:00:00 NR -19.0969 118.813 main 116 105 __________P___ -1 -19.0969 118.813 7 2 187
1899076S18119 1899 11 SI WA NOT_NAMED 1899-03-17 12:00:00 NR -19.2000 118.800 main 105 94 __________O___ -1 -19.2000 118.800 7 2 192
1899076S18119 1899 11 SI WA NOT_NAMED 1899-03-17 15:00:00 NR -19.3259 118.775 main 94 74 __________P___ -1 -19.3259 118.775 7 3 187
1899076S18119 1899 11 SI WA NOT_NAMED 1899-03-17 18:00:00 NR -19.4575 118.750 main 74 69 __________P___ -1 -19.4575 118.750 7 3 189
1899076S18119 1899 11 SI WA NOT_NAMED 1899-03-17 21:00:00 NR -19.5853 118.725 main 69 61 __________P___ -1 -19.5853 118.725 7 2 191
1899076S18119 1899 11 SI WA NOT_NAMED 1899-03-18 00:00:00 NR -19.7000 118.700 main 61 53 __________O___ -1 -19.7000 118.700 7 2 193
1899076S18119 1899 11 SI WA NOT_NAMED 1899-03-18 03:00:00 NR -19.7894 118.679 main 53 45 __________P___ -1 -19.7894 118.679 7 2 191
1899076S18119 1899 11 SI WA NOT_NAMED 1899-03-18 06:00:00 NR -19.8650 118.657 main 45 45 __________P___ -1 -19.8650 118.657 7 2 194
1899076S18119 1899 11 SI WA NOT_NAMED 1899-03-18 09:00:00 NR -19.9331 118.632 main 53 44 __________P___ -1 -19.9331 118.632 7 1 204
1899076S18119 1899 11 SI WA NOT_NAMED 1899-03-18 12:00:00 NR -20.0000 118.600 main 44 33 __________O___ -1 -20.0000 118.600 7 2 206
1899076S18119 1899 11 SI WA NOT_NAMED 1899-03-18 15:00:00 NR -20.0750 118.561 main 33 33 __________P___ -1 -20.0750 118.561 7 2 207
1899076S18119 1899 11 SI WA NOT_NAMED 1899-03-18 18:00:00 NR -20.1500 118.515 main 33 22 __________P___ -1 -20.1500 118.515 7 2 212
1899076S18119 1899 11 SI WA NOT_NAMED 1899-03-18 21:00:00 NR -20.2250 118.461 main 22 11 __________P___ -1 -20.2250 118.461 7 2 214
1899076S18119 1899 11 SI WA NOT_NAMED 1899-03-19 00:00:00 NR -20.3000 118.400 main 11 0 __________O___ -1 -20.3000 118.400 7 2 220
1899076S18119 1899 11 SI WA NOT_NAMED 1899-03-19 03:00:00 NR -20.3709 118.332 main 0 0 __________P___ -1 -20.3709 118.332 7 2 223
1899076S18119 1899 11 SI WA NOT_NAMED 1899-03-19 06:00:00 NR -20.4425 118.257 main 0 0 __________P___ -1 -20.4425 118.257 7 2 224
1899076S18119 1899 11 SI WA NOT_NAMED 1899-03-19 09:00:00 NR -20.5178 118.179 main 0 0 __________P___ -1 -20.5178 118.179 7 2 223
1899076S18119 1899 11 SI WA NOT_NAMED 1899-03-19 12:00:00 NR -20.6000 118.100 main 0 0 __________O___ -1 -20.6000 118.100 7 2 217
1899076S18119 1899 11 SI WA NOT_NAMED 1899-03-19 15:00:00 NR -20.6968 118.033 main 0 0 __________P___ -1 -20.6968 118.033 7 2 213
1899076S18119 1899 11 SI WA NOT_NAMED 1899-03-19 18:00:00 NR -20.7999 117.965 main 0 0 __________P___ -1 -20.7999 117.965 7 2 213
1899076S18119 1899 11 SI WA NOT_NAMED 1899-03-19 21:00:00 NR -20.9031 117.889 main 0 0 __________P___ -1 -20.9031 117.889 7 3 218
1899076S18119 1899 11 SI WA NOT_NAMED 1899-03-20 00:00:00 NR -21.0000 117.800 main 0 0 __________O___ -1 -21.0000 117.800 7 2 223
1899076S18119 1899 11 SI WA NOT_NAMED 1899-03-20 03:00:00 NR -21.0657 117.726 main 0 0 __________P___ -1 -21.0657 117.726 7 2 231
1899076S18119 1899 11 SI WA NOT_NAMED 1899-03-20 06:00:00 NR -21.1270 117.632 main 0 0 __________P___ -1 -21.1270 117.632 7 3 238
1899076S18119 1899 11 SI WA NOT_NAMED 1899-03-20 09:00:00 NR -21.1999 117.497 main 0 0 __________P___ -1 -21.1999 117.497 7 4 241
1899076S18119 1899 11 SI WA NOT_NAMED 1899-03-20 12:00:00 NR -21.3000 117.300 main 0 0 __________O___ -1 -21.3000 117.300 7 5 244
1899076S18119 1899 11 SI WA NOT_NAMED 1899-03-20 15:00:00 NR -21.4307 116.979 main 0 0 __________P___ -1 -21.4307 116.979 7 7 246
1899076S18119 1899 11 SI WA NOT_NAMED 1899-03-20 18:00:00 NR -21.5910 116.601 main 0 0 __________P___ -1 -21.5910 116.601 7 8 244
1899076S18119 1899 11 SI WA NOT_NAMED 1899-03-20 21:00:00 NR -21.7807 116.222 main 0 0 __________P___ -1 -21.7807 116.222 7 8 238
1899076S18119 1899 11 SI WA NOT_NAMED 1899-03-21 00:00:00 NR -22.0000 115.900 main 0 0 __________O___ -1 -22.0000 115.900 7 7 227
1899076S18119 1899 11 SI WA NOT_NAMED 1899-03-21 03:00:00 NR -22.2459 115.686 main 0 0 __________P___ -1 -22.2459 115.686 7 6 213
1899076S18119 1899 11 SI WA NOT_NAMED 1899-03-21 06:00:00 NR -22.5196 115.537 main 0 0 __________P___ -1 -22.5196 115.537 7 6 202
1899076S18119 1899 11 SI WA NOT_NAMED 1899-03-21 09:00:00 NR -22.8085 115.445 main 0 0 __________P___ -1 -22.8085 115.445 7 6 192
1899076S18119 1899 11 SI WA NOT_NAMED 1899-03-21 12:00:00 NR -23.1000 115.400 main 0 0 __________O___ -1 -23.1000 115.400 7 6 187
1899076S18119 1899 11 SI WA NOT_NAMED 1899-03-21 15:00:00 NR -23.3790 115.373 main 0 0 __________P___ -1 -23.3790 115.373 7 6 0
1899076S18119 1899 11 SI WA NOT_NAMED 1899-03-21 18:00:00 NR -23.6574 115.390 main 0 0 __________P___ -1 -23.6574 115.390 7 6 175
1899076S18119 1899 11 SI WA NOT_NAMED 1899-03-21 21:00:00 NR -23.9321 115.436 main 0 0 __________P___ -1 -23.9321 115.436 7 6 170
1899076S18119 1899 11 SI WA NOT_NAMED 1899-03-22 00:00:00 NR -24.2000 115.500 main 0 0 __________O___ -1 -24.2000 115.500 7 5 169
1899076S18119 1899 11 SI WA NOT_NAMED 1899-03-22 03:00:00 NR -24.4653 115.553 main 0 0 __________P___ -1 -24.4653 115.553 7 5 168
1899076S18119 1899 11 SI WA NOT_NAMED 1899-03-22 06:00:00 NR -24.7225 115.620 main 0 0 __________P___ -1 -24.7225 115.620 7 5 165
1899076S18119 1899 11 SI WA NOT_NAMED 1899-03-22 09:00:00 NR -24.9684 115.703 main 0 0 __________P___ -1 -24.9684 115.703 7 5 161
1899076S18119 1899 11 SI WA NOT_NAMED 1899-03-22 12:00:00 NR -25.2000 115.800 main 0 0 __________O___ -1 -25.2000 115.800 7 5 160
1899076S18119 1899 11 SI WA NOT_NAMED 1899-03-22 15:00:00 NR -25.3896 115.871 main 0 0 __________P___ -1 -25.3896 115.871 7 4 158
1899076S18119 1899 11 SI WA NOT_NAMED 1899-03-22 18:00:00 NR -25.5694 115.962 main 0 0 __________P___ -1 -25.5694 115.962 7 4 152
1899076S18119 1899 11 SI WA NOT_NAMED 1899-03-22 21:00:00 NR -25.7644 116.096 main 0 0 __________P___ -1 -25.7644 116.096 7 5 145
1899076S18119 1899 11 SI WA NOT_NAMED 1899-03-23 00:00:00 NR -26.0000 116.300 main 0 0 __________O___ -1 -26.0000 116.300 7 7 141
1899076S18119 1899 11 SI WA NOT_NAMED 1899-03-23 03:00:00 NR -26.3028 116.583 main 0 0 __________P___ -1 -26.3028 116.583 7 9 139
1899076S18119 1899 11 SI WA NOT_NAMED 1899-03-23 06:00:00 NR -26.6474 116.938 main 0 0 __________P___ -1 -26.6474 116.938 7 10 136
1899076S18119 1899 11 SI WA NOT_NAMED 1899-03-23 09:00:00 NR -27.0182 117.349 main 0 0 __________P___ -1 -27.0182 117.349 7 11 134
1899076S18119 1899 11 SI WA NOT_NAMED 1899-03-23 12:00:00 NR -27.4000 117.800 main 0 0 __________O___ -1 -27.4000 117.800 7 10 136
1899076S18119 1899 11 SI WA NOT_NAMED 1899-03-23 15:00:00 NR -27.7046 118.107 main 0 0 __________P___ -1 -27.7046 118.107 7 9 136
1899076S18119 1899 11 SI WA NOT_NAMED 1899-03-23 18:00:00 NR -28.0265 118.472 main 0 0 __________P___ -1 -28.0265 118.472 7 11 132
1899076S18119 1899 11 SI WA NOT_NAMED 1899-03-23 21:00:00 NR -28.4106 118.999 main 0 0 __________P___ -1 -28.4106 118.999 7 15 127
1899076S18119 1899 11 SI WA NOT_NAMED 1899-03-24 00:00:00 NR -28.9000 119.800 main 0 0 __________O___ -1 -28.9000 119.800 7 21 123
1899076S18119 1899 11 SI WA NOT_NAMED 1899-03-24 03:00:00 NR -29.5438 121.023 main 0 0 __________P___ -1 -29.5438 121.023 7 27 120
1899076S18119 1899 11 SI WA NOT_NAMED 1899-03-24 06:00:00 NR -30.2777 122.534 main 0 0 __________P___ -1 -30.2777 122.534 7 31 119
1899076S18119 1899 11 SI WA NOT_NAMED 1899-03-24 09:00:00 NR -31.0462 124.204 main 0 0 __________P___ -1 -31.0462 124.204 7 33 118
1899076S18119 1899 11 SI WA NOT_NAMED 1899-03-24 12:00:00 NR -31.8000 125.900 main 0 0 __________O___ -1 -31.8000 125.900 7 32 117
1899076S18119 1899 11 SI WA NOT_NAMED 1899-03-24 15:00:00 NR -32.5057 127.512 main 33 33 __________P___ -1 -32.5057 127.512 7 30 117
1899076S18119 1899 11 SI WA NOT_NAMED 1899-03-24 18:00:00 NR -33.1675 129.044 main 153 153 __________P___ -1 -33.1675 129.044 7 28 117
1899076S18119 1899 11 SI WA NOT_NAMED 1899-03-24 21:00:00 NR -33.7961 130.529 main 245 244 __________P___ -1 -33.7961 130.529 7 27 117
1899076S18119 1899 11 SI WA NOT_NAMED 1899-03-25 00:00:00 NR -34.4000 132.000 main 248 __________O___ -1 -34.4000 132.000 7 27 116

IBTrACS Databaseについて

本データベースは、米国NOAAが公開する1842年以降の世界の熱帯低気圧のベストトラックデータアーカイブInternational Best Track Archive for Climate Stewardship (IBTrACS)を、ウェブで閲覧しやすい形式に変換したものです。

最終更新日:2021-11-26